Structure, Texas
Current Conditions -  °F | °C
As of 9:15 AM on Tuesday 21 Oct 2014 (Local Time) from KEDC Reporting Station
Clear Clear  
Wind Chill: 18°   Ceiling: Unl
Heat Index: 18°   Visibility: 10mi
Dew Point: 15°   Wind: 6mph
Humidity: 83%   Direction: 20°NNE
Pressure: 30.1"   Gusts: NA
Location:  30.2988°N, 97.3874°W
Report Text: KEDC 211415Z AUTO 02005KT 10SM CLR 18/15 A3010 RMK AO2
Loading
Personal Weather Stations






























Interactive Weather Map
Tropical Storm Tracking
New forecast layout! Learn more

10-Day Weather Forecast

Advertisements
Track Severe Weather on mobile